Terminal Aerodrome Forecast
Issued by NWS Burlington, VT

Home | Current Version | Previous Version | Text Only | Print | Product List | Glossary On
Versions: 1 2 3 4 5 6 7 8 9 10 11 12 13 14 15 16 17 18 19 20 21
887
FTUS41 KBTV 191139
TAFBTV
TAF
KBTV 191139Z 1912/2012 VRB03KT P6SM BKN070
     FM191500 22006KT P6SM BKN040
     FM192000 24006KT P6SM VCSH BKN040
     FM200400 27005KT P6SM BKN040=

USA.gov is the U.S. government's official web portal to all federal, state and local government web resources and services.